sensor_id;sensor_type;location;lat;lon;timestamp;temperature;humidity
17968;DHT22;9109;48.050;11.696;2022-09-12T03:48:17;12.60;99.90
17968;DHT22;9109;48.050;11.696;2022-09-12T03:51:19;12.60;99.90
17968;DHT22;9109;48.050;11.696;2022-09-12T03:54:21;12.70;99.90
17968;DHT22;9109;48.050;11.696;2022-09-12T03:57:23;12.70;99.90
17968;DHT22;9109;48.050;11.696;2022-09-12T04:00:25;12.60;99.90
17968;DHT22;9109;48.050;11.696;2022-09-12T04:03:28;12.60;99.90
17968;DHT22;9109;48.050;11.696;2022-09-12T04:06:30;12.60;99.90
17968;DHT22;9109;48.050;11.696;2022-09-12T04:09:32;12.60;99.90
17968;DHT22;9109;48.050;11.696;2022-09-12T04:12:34;12.60;99.90
17968;DHT22;9109;48.050;11.696;2022-09-12T04:15:36;12.50;99.90
17968;DHT22;9109;48.050;11.696;2022-09-12T04:18:39;12.50;99.90
17968;DHT22;9109;48.050;11.696;2022-09-12T04:21:41;12.50;99.90
17968;DHT22;9109;48.050;11.696;2022-09-12T04:24:43;12.40;99.90
17968;DHT22;9109;48.050;11.696;2022-09-12T04:27:45;12.40;99.90
17968;DHT22;9109;48.050;11.696;2022-09-12T04:30:47;12.40;99.90
17968;DHT22;9109;48.050;11.696;2022-09-12T04:33:53;12.30;99.90
17968;DHT22;9109;48.050;11.696;2022-09-12T04:36:55;12.30;99.90
17968;DHT22;9109;48.050;11.696;2022-09-12T04:39:57;12.40;99.90
17968;DHT22;9109;48.050;11.696;2022-09-12T04:42:59;12.40;99.90
17968;DHT22;9109;48.050;11.696;2022-09-12T04:46:04;12.40;99.90
17968;DHT22;9109;48.050;11.696;2022-09-12T04:49:07;12.40;99.90
17968;DHT22;9109;48.050;11.696;2022-09-12T04:52:09;12.30;99.90
17968;DHT22;9109;48.050;11.696;2022-09-12T04:55:11;12.30;99.90
17968;DHT22;9109;48.050;11.696;2022-09-12T04:58:13;12.30;99.90
17968;DHT22;9109;48.050;11.696;2022-09-12T05:01:16;12.20;99.90
17968;DHT22;9109;48.050;11.696;2022-09-12T05:04:20;12.10;99.90
17968;DHT22;9109;48.050;11.696;2022-09-12T05:07:24;12.10;99.90
17968;DHT22;9109;48.050;11.696;2022-09-12T05:10:26;12.20;99.90
17968;DHT22;9109;48.050;11.696;2022-09-12T05:13:28;12.30;99.90
17968;DHT22;9109;48.050;11.696;2022-09-12T05:16:30;12.20;99.90
17968;DHT22;9109;48.050;11.696;2022-09-12T05:19:33;12.20;99.90
17968;DHT22;9109;48.050;11.696;2022-09-12T05:22:36;11.80;99.90
17968;DHT22;9109;48.050;11.696;2022-09-12T05:25:38;11.70;99.90
17968;DHT22;9109;48.050;11.696;2022-09-12T05:28:40;11.70;99.90
17968;DHT22;9109;48.050;11.696;2022-09-12T05:31:42;11.60;99.90
17968;DHT22;9109;48.050;11.696;2022-09-12T05:34:45;11.60;99.90
17968;DHT22;9109;48.050;11.696;2022-09-12T05:37:47;11.80;99.90
17968;DHT22;9109;48.050;11.696;2022-09-12T05:40:49;12.00;99.90
17968;DHT22;9109;48.050;11.696;2022-09-12T05:43:52;12.10;99.90
17968;DHT22;9109;48.050;11.696;2022-09-12T05:46:54;12.20;99.90
17968;DHT22;9109;48.050;11.696;2022-09-12T05:49:58;12.20;99.90
17968;DHT22;9109;48.050;11.696;2022-09-12T05:53:00;12.30;99.90
17968;DHT22;9109;48.050;11.696;2022-09-12T05:56:07;12.30;99.90
17968;DHT22;9109;48.050;11.696;2022-09-12T05:59:11;12.40;99.90
17968;DHT22;9109;48.050;11.696;2022-09-12T06:02:14;12.40;99.90
17968;DHT22;9109;48.050;11.696;2022-09-12T06:05:17;12.40;99.90
17968;DHT22;9109;48.050;11.696;2022-09-12T06:08:20;12.30;99.90
17968;DHT22;9109;48.050;11.696;2022-09-12T06:11:23;12.30;99.90
17968;DHT22;9109;48.050;11.696;2022-09-12T06:14:26;12.40;99.90
17968;DHT22;9109;48.050;11.696;2022-09-12T06:17:28;12.50;99.90
17968;DHT22;9109;48.050;11.696;2022-09-12T06:20:31;12.60;99.90
17968;DHT22;9109;48.050;11.696;2022-09-12T06:23:33;12.70;99.90
17968;DHT22;9109;48.050;11.696;2022-09-12T06:26:35;12.70;99.90
17968;DHT22;9109;48.050;11.696;2022-09-12T06:29:37;12.80;99.90
17968;DHT22;9109;48.050;11.696;2022-09-12T06:32:39;12.80;99.90
17968;DHT22;9109;48.050;11.696;2022-09-12T06:35:43;12.90;99.90
17968;DHT22;9109;48.050;11.696;2022-09-12T06:38:45;12.90;99.90
17968;DHT22;9109;48.050;11.696;2022-09-12T06:41:48;13.00;99.90
17968;DHT22;9109;48.050;11.696;2022-09-12T06:44:50;13.00;99.90
17968;DHT22;9109;48.050;11.696;2022-09-12T06:47:54;13.10;99.90
17968;DHT22;9109;48.050;11.696;2022-09-12T06:50:58;13.10;99.90
17968;DHT22;9109;48.050;11.696;2022-09-12T06:54:01;13.20;99.90
17968;DHT22;9109;48.050;11.696;2022-09-12T06:57:03;13.20;99.90
17968;DHT22;9109;48.050;11.696;2022-09-12T07:00:07;13.30;99.90
17968;DHT22;9109;48.050;11.696;2022-09-12T07:03:09;13.40;99.90
17968;DHT22;9109;48.050;11.696;2022-09-12T07:06:13;13.60;99.90
17968;DHT22;9109;48.050;11.696;2022-09-12T07:09:16;13.60;99.90
17968;DHT22;9109;48.050;11.696;2022-09-12T07:12:18;13.60;99.90
17968;DHT22;9109;48.050;11.696;2022-09-12T07:15:20;13.70;99.90
17968;DHT22;9109;48.050;11.696;2022-09-12T07:18:22;13.70;99.90
17968;DHT22;9109;48.050;11.696;2022-09-12T07:21:25;13.70;99.90
17968;DHT22;9109;48.050;11.696;2022-09-12T07:24:27;13.70;99.90
17968;DHT22;9109;48.050;11.696;2022-09-12T07:27:29;13.80;99.90
17968;DHT22;9109;48.050;11.696;2022-09-12T07:30:31;13.90;99.90
17968;DHT22;9109;48.050;11.696;2022-09-12T07:33:33;13.90;99.90
17968;DHT22;9109;48.050;11.696;2022-09-12T07:36:37;14.10;99.90
17968;DHT22;9109;48.050;11.696;2022-09-12T07:39:39;14.10;99.90
17968;DHT22;9109;48.050;11.696;2022-09-12T07:42:41;14.30;99.90
17968;DHT22;9109;48.050;11.696;2022-09-12T07:45:43;14.40;99.90
17968;DHT22;9109;48.050;11.696;2022-09-12T07:48:48;14.60;99.90
17968;DHT22;9109;48.050;11.696;2022-09-12T07:51:53;14.60;99.90
17968;DHT22;9109;48.050;11.696;2022-09-12T07:54:55;14.70;99.90
17968;DHT22;9109;48.050;11.696;2022-09-12T07:57:57;14.80;99.90
17968;DHT22;9109;48.050;11.696;2022-09-12T08:01:03;14.90;99.90
17968;DHT22;9109;48.050;11.696;2022-09-12T08:04:05;15.00;99.90
17968;DHT22;9109;48.050;11.696;2022-09-12T08:07:08;15.00;99.90
17968;DHT22;9109;48.050;11.696;2022-09-12T08:10:10;15.00;99.90
17968;DHT22;9109;48.050;11.696;2022-09-12T08:13:12;15.20;99.90
17968;DHT22;9109;48.050;11.696;2022-09-12T08:16:16;15.20;99.90
17968;DHT22;9109;48.050;11.696;2022-09-12T08:19:18;15.30;99.90
17968;DHT22;9109;48.050;11.696;2022-09-12T08:22:23;15.40;99.90
17968;DHT22;9109;48.050;11.696;2022-09-12T08:25:25;15.60;99.90
17968;DHT22;9109;48.050;11.696;2022-09-12T08:28:28;15.70;99.90
17968;DHT22;9109;48.050;11.696;2022-09-12T08:31:31;15.80;99.90
17968;DHT22;9109;48.050;11.696;2022-09-12T08:34:35;15.90;99.90
17968;DHT22;9109;48.050;11.696;2022-09-12T08:37:39;16.00;99.90
17968;DHT22;9109;48.050;11.696;2022-09-12T08:40:47;16.10;99.90
17968;DHT22;9109;48.050;11.696;2022-09-12T08:44:08;16.00;99.90
17968;DHT22;9109;48.050;11.696;2022-09-12T08:47:19;16.20;99.90
17968;DHT22;9109;48.050;11.696;2022-09-12T08:50:21;16.40;99.90
17968;DHT22;9109;48.050;11.696;2022-09-12T08:53:26;16.40;99.90
17968;DHT22;9109;48.050;11.696;2022-09-12T08:56:33;16.60;99.90
17968;DHT22;9109;48.050;11.696;2022-09-12T08:59:39;16.70;99.90
17968;DHT22;9109;48.050;11.696;2022-09-12T09:03:08;16.70;99.90
17968;DHT22;9109;48.050;11.696;2022-09-12T09:06:34;16.80;99.90
17968;DHT22;9109;48.050;11.696;2022-09-12T09:09:53;16.80;99.90
17968;DHT22;9109;48.050;11.696;2022-09-12T09:13:05;16.80;99.90
17968;DHT22;9109;48.050;11.696;2022-09-12T09:16:15;16.80;99.90
17968;DHT22;9109;48.050;11.696;2022-09-12T09:19:22;17.00;99.90
17968;DHT22;9109;48.050;11.696;2022-09-12T09:22:38;17.00;99.90
17968;DHT22;9109;48.050;11.696;2022-09-12T09:25:48;17.20;99.90
17968;DHT22;9109;48.050;11.696;2022-09-12T09:28:54;17.20;99.90
17968;DHT22;9109;48.050;11.696;2022-09-12T09:31:59;17.20;99.90
17968;DHT22;9109;48.050;11.696;2022-09-12T09:35:11;17.40;99.90
17968;DHT22;9109;48.050;11.696;2022-09-12T09:38:23;17.50;99.90
17968;DHT22;9109;48.050;11.696;2022-09-12T09:41:42;17.70;99.90
17968;DHT22;9109;48.050;11.696;2022-09-12T09:44:47;17.70;99.90
17968;DHT22;9109;48.050;11.696;2022-09-12T09:47:51;17.70;99.90
17968;DHT22;9109;48.050;11.696;2022-09-12T09:50:57;17.80;99.90
17968;DHT22;9109;48.050;11.696;2022-09-12T09:54:04;17.70;99.90
17968;DHT22;9109;48.050;11.696;2022-09-12T09:57:40;17.70;99.90
17968;DHT22;9109;48.050;11.696;2022-09-12T10:00:43;17.80;99.90
17968;DHT22;9109;48.050;11.696;2022-09-12T10:03:48;18.00;99.90
17968;DHT22;9109;48.050;11.696;2022-09-12T10:06:51;18.00;99.90
17968;DHT22;9109;48.050;11.696;2022-09-12T10:10:05;18.00;99.90
17968;DHT22;9109;48.050;11.696;2022-09-12T10:13:21;18.10;99.90
17968;DHT22;9109;48.050;11.696;2022-09-12T10:16:26;18.20;98.20
17968;DHT22;9109;48.050;11.696;2022-09-12T10:19:38;18.30;98.10
17968;DHT22;9109;48.050;11.696;2022-09-12T10:22:46;18.40;96.50
17968;DHT22;9109;48.050;11.696;2022-09-12T10:25:52;18.40;95.50
17968;DHT22;9109;48.050;11.696;2022-09-12T10:28:57;18.50;97.70
17968;DHT22;9109;48.050;11.696;2022-09-12T10:32:02;18.50;98.20
17968;DHT22;9109;48.050;11.696;2022-09-12T10:35:07;18.60;97.00
17968;DHT22;9109;48.050;11.696;2022-09-12T10:38:21;18.70;97.10
17968;DHT22;9109;48.050;11.696;2022-09-12T10:41:24;18.80;99.90
17968;DHT22;9109;48.050;11.696;2022-09-12T10:44:29;18.80;98.70
17968;DHT22;9109;48.050;11.696;2022-09-12T10:47:32;18.90;93.80
17968;DHT22;9109;48.050;11.696;2022-09-12T10:50:37;18.90;93.70
17968;DHT22;9109;48.050;11.696;2022-09-12T10:53:43;19.00;93.60
17968;DHT22;9109;48.050;11.696;2022-09-12T10:57:16;19.00;94.20
17968;DHT22;9109;48.050;11.696;2022-09-12T11:00:22;19.10;93.90
17968;DHT22;9109;48.050;11.696;2022-09-12T11:03:44;19.10;92.70
17968;DHT22;9109;48.050;11.696;2022-09-12T11:07:03;19.10;92.10
17968;DHT22;9109;48.050;11.696;2022-09-12T11:10:30;19.20;92.20
17968;DHT22;9109;48.050;11.696;2022-09-12T11:13:55;19.10;94.20
17968;DHT22;9109;48.050;11.696;2022-09-12T11:17:08;19.30;95.20
17968;DHT22;9109;48.050;11.696;2022-09-12T11:24:10;19.50;94.60
17968;DHT22;9109;48.050;11.696;2022-09-12T11:27:24;19.40;94.80
17968;DHT22;9109;48.050;11.696;2022-09-12T11:30:35;19.60;95.50
17968;DHT22;9109;48.050;11.696;2022-09-12T11:33:43;19.70;93.90
17968;DHT22;9109;48.050;11.696;2022-09-12T11:37:10;19.70;94.60
17968;DHT22;9109;48.050;11.696;2022-09-12T11:40:25;19.70;95.20
17968;DHT22;9109;48.050;11.696;2022-09-12T11:43:34;19.60;93.90
17968;DHT22;9109;48.050;11.696;2022-09-12T11:46:39;19.70;94.50
17968;DHT22;9109;48.050;11.696;2022-09-12T11:49:46;19.70;93.40
17968;DHT22;9109;48.050;11.696;2022-09-12T11:52:49;19.70;92.40
17968;DHT22;9109;48.050;11.696;2022-09-12T11:55:55;19.70;94.00
17968;DHT22;9109;48.050;11.696;2022-09-12T11:59:03;19.90;93.50
17968;DHT22;9109;48.050;11.696;2022-09-12T12:02:11;19.90;92.00
17968;DHT22;9109;48.050;11.696;2022-09-12T12:05:19;19.90;91.80
17968;DHT22;9109;48.050;11.696;2022-09-12T12:08:24;20.10;91.80
17968;DHT22;9109;48.050;11.696;2022-09-12T12:11:32;20.20;90.80
17968;DHT22;9109;48.050;11.696;2022-09-12T12:14:39;20.10;90.00
17968;DHT22;9109;48.050;11.696;2022-09-12T12:17:43;19.90;91.20
17968;DHT22;9109;48.050;11.696;2022-09-12T12:20:47;20.10;91.10
17968;DHT22;9109;48.050;11.696;2022-09-12T12:24:09;20.10;90.60
17968;DHT22;9109;48.050;11.696;2022-09-12T12:27:23;20.20;88.50
17968;DHT22;9109;48.050;11.696;2022-09-12T12:30:59;20.30;90.00
17968;DHT22;9109;48.050;11.696;2022-09-12T12:34:21;20.50;92.50
17968;DHT22;9109;48.050;11.696;2022-09-12T12:37:56;20.50;92.00
17968;DHT22;9109;48.050;11.696;2022-09-12T12:41:43;20.60;91.70
17968;DHT22;9109;48.050;11.696;2022-09-12T12:44:47;20.60;90.00
17968;DHT22;9109;48.050;11.696;2022-09-12T12:47:52;20.60;90.80
17968;DHT22;9109;48.050;11.696;2022-09-12T12:51:14;20.60;90.60
17968;DHT22;9109;48.050;11.696;2022-09-12T12:57:48;20.70;89.50
17968;DHT22;9109;48.050;11.696;2022-09-12T13:01:03;20.90;89.80
17968;DHT22;9109;48.050;11.696;2022-09-12T13:04:13;20.80;89.00
17968;DHT22;9109;48.050;11.696;2022-09-12T13:07:25;20.70;89.50
17968;DHT22;9109;48.050;11.696;2022-09-12T13:10:29;20.80;86.80
17968;DHT22;9109;48.050;11.696;2022-09-12T13:13:34;20.90;85.90
17968;DHT22;9109;48.050;11.696;2022-09-12T13:16:39;20.80;86.00
17968;DHT22;9109;48.050;11.696;2022-09-12T13:20:00;20.70;85.20
17968;DHT22;9109;48.050;11.696;2022-09-12T13:23:04;20.70;84.40
17968;DHT22;9109;48.050;11.696;2022-09-12T13:26:12;20.70;85.20
17968;DHT22;9109;48.050;11.696;2022-09-12T13:29:16;20.80;86.10
17968;DHT22;9109;48.050;11.696;2022-09-12T13:32:18;20.90;86.70
17968;DHT22;9109;48.050;11.696;2022-09-12T13:35:25;21.00;86.40
17968;DHT22;9109;48.050;11.696;2022-09-12T13:38:39;21.00;84.40
17968;DHT22;9109;48.050;11.696;2022-09-12T13:42:06;21.00;83.10
17968;DHT22;9109;48.050;11.696;2022-09-12T13:45:19;21.00;81.20
17968;DHT22;9109;48.050;11.696;2022-09-12T13:48:23;21.10;83.70
17968;DHT22;9109;48.050;11.696;2022-09-12T13:51:27;21.20;83.50
17968;DHT22;9109;48.050;11.696;2022-09-12T13:54:30;21.30;80.50
17968;DHT22;9109;48.050;11.696;2022-09-12T13:57:35;21.30;79.60
17968;DHT22;9109;48.050;11.696;2022-09-12T14:00:38;21.10;80.90
17968;DHT22;9109;48.050;11.696;2022-09-12T14:03:41;21.20;77.70
17968;DHT22;9109;48.050;11.696;2022-09-12T14:07:08;21.10;78.60
17968;DHT22;9109;48.050;11.696;2022-09-12T14:10:16;21.30;78.10
17968;DHT22;9109;48.050;11.696;2022-09-12T14:13:23;21.30;79.60
17968;DHT22;9109;48.050;11.696;2022-09-12T14:16:26;21.20;82.70
17968;DHT22;9109;48.050;11.696;2022-09-12T14:19:28;21.30;81.40
17968;DHT22;9109;48.050;11.696;2022-09-12T14:22:32;21.40;81.00
17968;DHT22;9109;48.050;11.696;2022-09-12T14:25:37;21.50;78.80
17968;DHT22;9109;48.050;11.696;2022-09-12T14:28:43;21.40;77.80
17968;DHT22;9109;48.050;11.696;2022-09-12T14:31:47;21.40;79.50
17968;DHT22;9109;48.050;11.696;2022-09-12T14:38:25;21.40;75.50
17968;DHT22;9109;48.050;11.696;2022-09-12T14:41:33;21.40;77.10
17968;DHT22;9109;48.050;11.696;2022-09-12T14:44:37;21.30;76.70
17968;DHT22;9109;48.050;11.696;2022-09-12T14:47:41;21.30;78.30
17968;DHT22;9109;48.050;11.696;2022-09-12T14:50:48;21.20;77.20
17968;DHT22;9109;48.050;11.696;2022-09-12T14:53:50;21.10;77.70
17968;DHT22;9109;48.050;11.696;2022-09-12T14:56:55;21.10;80.00
17968;DHT22;9109;48.050;11.696;2022-09-12T15:00:19;21.10;78.70
17968;DHT22;9109;48.050;11.696;2022-09-12T15:03:25;21.10;79.60
17968;DHT22;9109;48.050;11.696;2022-09-12T15:06:29;21.10;81.30
17968;DHT22;9109;48.050;11.696;2022-09-12T15:09:31;21.00;81.50
17968;DHT22;9109;48.050;11.696;2022-09-12T15:12:33;21.00;83.80
17968;DHT22;9109;48.050;11.696;2022-09-12T15:15:37;21.00;80.30
17968;DHT22;9109;48.050;11.696;2022-09-12T15:18:40;20.90;81.20
17968;DHT22;9109;48.050;11.696;2022-09-12T15:21:42;20.90;80.40
17968;DHT22;9109;48.050;11.696;2022-09-12T15:24:44;20.80;79.80
17968;DHT22;9109;48.050;11.696;2022-09-12T15:27:46;20.90;78.50
17968;DHT22;9109;48.050;11.696;2022-09-12T15:30:51;20.90;79.50
17968;DHT22;9109;48.050;11.696;2022-09-12T15:33:55;20.80;79.70
17968;DHT22;9109;48.050;11.696;2022-09-12T15:36:57;20.80;79.20
17968;DHT22;9109;48.050;11.696;2022-09-12T15:39:59;20.90;79.80
17968;DHT22;9109;48.050;11.696;2022-09-12T15:43:01;20.90;80.20
17968;DHT22;9109;48.050;11.696;2022-09-12T15:46:05;20.90;79.30
17968;DHT22;9109;48.050;11.696;2022-09-12T15:49:07;20.80;80.60
17968;DHT22;9109;48.050;11.696;2022-09-12T15:52:14;20.80;81.20
17968;DHT22;9109;48.050;11.696;2022-09-12T15:55:17;20.70;80.50
17968;DHT22;9109;48.050;11.696;2022-09-12T15:58:20;20.70;80.80
17968;DHT22;9109;48.050;11.696;2022-09-12T16:01:23;20.70;81.80
17968;DHT22;9109;48.050;11.696;2022-09-12T16:04:27;20.80;80.10
17968;DHT22;9109;48.050;11.696;2022-09-12T16:07:29;20.70;79.50
17968;DHT22;9109;48.050;11.696;2022-09-12T16:10:31;20.60;79.00
17968;DHT22;9109;48.050;11.696;2022-09-12T16:13:33;20.60;79.50
17968;DHT22;9109;48.050;11.696;2022-09-12T16:16:36;20.60;77.30
17968;DHT22;9109;48.050;11.696;2022-09-12T16:19:38;20.50;79.10
17968;DHT22;9109;48.050;11.696;2022-09-12T16:22:40;20.30;80.30
17968;DHT22;9109;48.050;11.696;2022-09-12T16:25:42;20.30;80.70
17968;DHT22;9109;48.050;11.696;2022-09-12T16:28:53;20.20;81.70
17968;DHT22;9109;48.050;11.696;2022-09-12T16:31:57;20.20;82.10
17968;DHT22;9109;48.050;11.696;2022-09-12T16:34:59;20.20;81.50
17968;DHT22;9109;48.050;11.696;2022-09-12T16:38:02;20.20;82.40
17968;DHT22;9109;48.050;11.696;2022-09-12T16:41:05;20.20;83.40
17968;DHT22;9109;48.050;11.696;2022-09-12T16:44:07;20.10;82.90
17968;DHT22;9109;48.050;11.696;2022-09-12T16:47:11;20.10;83.70
17968;DHT22;9109;48.050;11.696;2022-09-12T16:50:13;20.10;82.90
17968;DHT22;9109;48.050;11.696;2022-09-12T16:53:15;20.00;82.30
17968;DHT22;9109;48.050;11.696;2022-09-12T16:56:17;19.90;82.80
17968;DHT22;9109;48.050;11.696;2022-09-12T16:59:19;19.90;84.30
17968;DHT22;9109;48.050;11.696;2022-09-12T17:02:22;19.90;85.50
17968;DHT22;9109;48.050;11.696;2022-09-12T17:05:24;19.90;86.20
17968;DHT22;9109;48.050;11.696;2022-09-12T17:08:27;19.90;85.30
17968;DHT22;9109;48.050;11.696;2022-09-12T17:11:31;19.80;86.90
17968;DHT22;9109;48.050;11.696;2022-09-12T17:14:34;19.80;87.70
17968;DHT22;9109;48.050;11.696;2022-09-12T17:17:37;19.80;88.40
17968;DHT22;9109;48.050;11.696;2022-09-12T17:20:39;19.70;88.50
17968;DHT22;9109;48.050;11.696;2022-09-12T17:23:41;19.60;89.80
17968;DHT22;9109;48.050;11.696;2022-09-12T17:26:43;19.50;90.10
17968;DHT22;9109;48.050;11.696;2022-09-12T17:29:45;19.50;90.50
17968;DHT22;9109;48.050;11.696;2022-09-12T17:32:50;19.40;90.80
17968;DHT22;9109;48.050;11.696;2022-09-12T17:35:52;19.30;91.10
17968;DHT22;9109;48.050;11.696;2022-09-12T17:38:54;19.20;91.40
17968;DHT22;9109;48.050;11.696;2022-09-12T17:41:56;19.10;91.90
17968;DHT22;9109;48.050;11.696;2022-09-12T17:44:58;19.00;92.00
17968;DHT22;9109;48.050;11.696;2022-09-12T17:48:02;18.90;92.30
17968;DHT22;9109;48.050;11.696;2022-09-12T17:51:06;18.90;92.70
17968;DHT22;9109;48.050;11.696;2022-09-12T17:54:11;18.80;92.90
17968;DHT22;9109;48.050;11.696;2022-09-12T17:57:13;18.70;93.20
17968;DHT22;9109;48.050;11.696;2022-09-12T18:00:15;18.70;93.60
17968;DHT22;9109;48.050;11.696;2022-09-12T18:03:39;18.60;94.10
17968;DHT22;9109;48.050;11.696;2022-09-12T18:06:40;18.50;94.30
17968;DHT22;9109;48.050;11.696;2022-09-12T18:09:47;18.40;94.80
17968;DHT22;9109;48.050;11.696;2022-09-12T18:12:50;18.40;95.40
17968;DHT22;9109;48.050;11.696;2022-09-12T18:15:53;18.30;96.20
17968;DHT22;9109;48.050;11.696;2022-09-12T18:18:57;18.20;96.80
17968;DHT22;9109;48.050;11.696;2022-09-12T18:22:01;18.20;97.40
17968;DHT22;9109;48.050;11.696;2022-09-12T18:25:03;18.10;97.70
17968;DHT22;9109;48.050;11.696;2022-09-12T18:28:05;18.00;98.20
17968;DHT22;9109;48.050;11.696;2022-09-12T18:31:10;18.00;98.90
17968;DHT22;9109;48.050;11.696;2022-09-12T18:34:15;17.90;99.60
17968;DHT22;9109;48.050;11.696;2022-09-12T18:37:17;17.90;99.90
17968;DHT22;9109;48.050;11.696;2022-09-12T18:40:19;17.70;99.90
17968;DHT22;9109;48.050;11.696;2022-09-12T18:43:21;17.60;99.90
17968;DHT22;9109;48.050;11.696;2022-09-12T18:46:23;17.60;99.90
17968;DHT22;9109;48.050;11.696;2022-09-12T18:49:27;17.50;99.90
17968;DHT22;9109;48.050;11.696;2022-09-12T18:52:28;17.50;99.90
17968;DHT22;9109;48.050;11.696;2022-09-12T18:55:30;17.50;99.90
17968;DHT22;9109;48.050;11.696;2022-09-12T18:58:33;17.50;99.90
17968;DHT22;9109;48.050;11.696;2022-09-12T19:01:36;17.50;99.90
17968;DHT22;9109;48.050;11.696;2022-09-12T19:04:40;17.40;99.90
17968;DHT22;9109;48.050;11.696;2022-09-12T19:07:42;17.40;99.90
17968;DHT22;9109;48.050;11.696;2022-09-12T19:10:43;17.40;99.90
17968;DHT22;9109;48.050;11.696;2022-09-12T19:13:47;17.30;99.90
17968;DHT22;9109;48.050;11.696;2022-09-12T19:16:49;17.20;99.90
17968;DHT22;9109;48.050;11.696;2022-09-12T19:19:53;17.10;99.90
17968;DHT22;9109;48.050;11.696;2022-09-12T19:22:55;17.00;99.90
17968;DHT22;9109;48.050;11.696;2022-09-12T19:26:26;16.90;99.90
17968;DHT22;9109;48.050;11.696;2022-09-12T19:30:05;16.90;99.90
17968;DHT22;9109;48.050;11.696;2022-09-12T19:33:16;16.80;99.90
17968;DHT22;9109;48.050;11.696;2022-09-12T20:05:43;16.30;99.90
17968;DHT22;9109;48.050;11.696;2022-09-12T20:13:01;16.40;99.90
17968;DHT22;9109;48.050;11.696;2022-09-12T20:16:32;16.30;99.90
17968;DHT22;9109;48.050;11.696;2022-09-12T20:20:42;16.20;99.90
17968;DHT22;9109;48.050;11.696;2022-09-12T20:28:35;16.20;99.90
17968;DHT22;9109;48.050;11.696;2022-09-12T20:32:12;16.10;99.90
17968;DHT22;9109;48.050;11.696;2022-09-12T20:35:17;16.00;99.90
17968;DHT22;9109;48.050;11.696;2022-09-12T20:38:48;15.90;99.90
17968;DHT22;9109;48.050;11.696;2022-09-12T20:42:12;15.90;99.90
17968;DHT22;9109;48.050;11.696;2022-09-12T20:46:00;15.90;99.90
17968;DHT22;9109;48.050;11.696;2022-09-12T20:49:45;15.80;99.90
17968;DHT22;9109;48.050;11.696;2022-09-12T20:57:16;15.70;99.90
17968;DHT22;9109;48.050;11.696;2022-09-12T21:00:37;15.60;99.90
17968;DHT22;9109;48.050;11.696;2022-09-12T21:04:03;15.40;99.90
17968;DHT22;9109;48.050;11.696;2022-09-12T21:08:00;15.40;99.90
17968;DHT22;9109;48.050;11.696;2022-09-12T21:11:22;15.30;99.90
17968;DHT22;9109;48.050;11.696;2022-09-12T21:15:00;15.20;99.90
17968;DHT22;9109;48.050;11.696;2022-09-12T21:18:13;15.20;99.90
17968;DHT22;9109;48.050;11.696;2022-09-12T21:21:57;15.20;99.90
17968;DHT22;9109;48.050;11.696;2022-09-12T21:29:05;15.30;99.90
17968;DHT22;9109;48.050;11.696;2022-09-12T21:32:51;15.30;99.90
17968;DHT22;9109;48.050;11.696;2022-09-12T21:36:27;15.30;99.90
17968;DHT22;9109;48.050;11.696;2022-09-12T21:43:19;15.10;99.90
17968;DHT22;9109;48.050;11.696;2022-09-12T21:47:00;15.00;99.90
17968;DHT22;9109;48.050;11.696;2022-09-12T21:55:06;14.90;99.90
17968;DHT22;9109;48.050;11.696;2022-09-12T22:02:47;14.90;99.90
17968;DHT22;9109;48.050;11.696;2022-09-12T22:06:05;14.90;99.90
17968;DHT22;9109;48.050;11.696;2022-09-12T22:09:23;14.90;99.90
17968;DHT22;9109;48.050;11.696;2022-09-12T22:13:03;14.80;99.90
17968;DHT22;9109;48.050;11.696;2022-09-12T22:16:55;14.80;99.90
17968;DHT22;9109;48.050;11.696;2022-09-12T22:27:39;14.70;99.90
17968;DHT22;9109;48.050;11.696;2022-09-12T22:31:03;14.70;99.90
17968;DHT22;9109;48.050;11.696;2022-09-12T22:34:07;14.70;99.90
17968;DHT22;9109;48.050;11.696;2022-09-12T22:37:09;14.70;99.90
17968;DHT22;9109;48.050;11.696;2022-09-12T22:40:12;14.70;99.90
17968;DHT22;9109;48.050;11.696;2022-09-12T22:43:45;14.70;99.90
17968;DHT22;9109;48.050;11.696;2022-09-12T22:46:57;14.60;99.90
